createdAt,value
2022-11-19T00:03:10.231Z,16.70
2022-11-19T00:07:12.025Z,14.57
2022-11-19T00:11:41.939Z,13.62
2022-11-19T00:15:43.819Z,10.68
2022-11-19T00:19:45.558Z,11.82
2022-11-19T00:23:47.351Z,16.40
2022-11-19T00:27:49.304Z,15.13
2022-11-19T00:31:50.984Z,13.23
2022-11-19T00:35:56.401Z,14.98
2022-11-19T00:39:58.252Z,14.87
2022-11-19T00:43:59.959Z,15.07
2022-11-19T00:48:01.647Z,12.57
2022-11-19T00:52:03.501Z,10.23
2022-11-19T00:56:08.571Z,10.18
2022-11-19T01:00:11.146Z,12.32
2022-11-19T01:04:13.033Z,12.50
2022-11-19T01:08:14.871Z,10.70
2022-11-19T01:12:16.697Z,11.07
2022-11-19T01:16:23.076Z,9.93
2022-11-19T01:20:24.875Z,10.57
2022-11-19T01:24:26.633Z,9.10
2022-11-19T01:28:30.094Z,9.40
2022-11-19T01:32:32.025Z,10.27
2022-11-19T01:36:33.890Z,11.23
2022-11-19T01:40:43.183Z,10.50
2022-11-19T01:45:02.258Z,11.93
2022-11-19T01:49:18.041Z,11.95
2022-11-19T01:53:22.152Z,12.18
2022-11-19T01:57:23.975Z,12.40
2022-11-19T02:01:26.040Z,13.48
2022-11-19T02:05:28.516Z,12.55
2022-11-19T02:09:30.466Z,12.82
2022-11-19T02:13:41.931Z,16.58
2022-11-19T02:18:02.579Z,17.33
2022-11-19T02:22:20.862Z,22.35
2022-11-19T02:26:45.339Z,19.75
2022-11-19T02:30:52.016Z,23.27
2022-11-19T02:34:58.533Z,18.05
2022-11-19T02:39:07.476Z,23.25
2022-11-19T02:43:19.275Z,20.58
2022-11-19T02:47:25.216Z,20.92
2022-11-19T02:51:26.992Z,22.40
2022-11-19T02:55:28.852Z,22.35
2022-11-19T03:00:09.548Z,27.92
2022-11-19T03:04:31.997Z,26.80
2022-11-19T03:08:33.798Z,25.45
2022-11-19T03:12:45.204Z,25.77
2022-11-19T03:17:49.997Z,25.25
2022-11-19T03:21:56.875Z,26.45
2022-11-19T03:26:07.426Z,26.58
2022-11-19T03:30:10.569Z,31.65
2022-11-19T03:34:18.138Z,27.50
2022-11-19T03:38:26.986Z,30.75
2022-11-19T03:42:30.390Z,27.95
2022-11-19T03:46:35.641Z,29.65
2022-11-19T03:50:48.673Z,28.67
2022-11-19T03:54:50.549Z,30.67
2022-11-19T03:58:53.842Z,31.20
2022-11-19T04:02:55.693Z,31.60
2022-11-19T04:06:57.444Z,34.38
2022-11-19T04:15:03.102Z,33.75
2022-11-19T04:19:05.002Z,31.83
2022-11-19T04:23:06.688Z,32.95
2022-11-19T04:27:08.424Z,29.52
2022-11-19T04:31:13.582Z,29.48
2022-11-19T04:35:21.804Z,29.98
2022-11-19T04:39:23.748Z,31.67
2022-11-19T04:43:25.565Z,30.77
2022-11-19T04:47:27.340Z,30.23
2022-11-19T04:51:29.168Z,31.33
2022-11-19T04:55:30.918Z,34.35
2022-11-19T04:59:32.643Z,35.45
2022-11-19T05:03:34.561Z,32.65
2022-11-19T05:07:36.332Z,34.90
2022-11-19T05:15:57.702Z,35.78
2022-11-19T05:20:00.230Z,34.45
2022-11-19T05:24:02.013Z,29.87
2022-11-19T05:28:03.894Z,29.02
2022-11-19T05:32:05.662Z,28.80
2022-11-19T05:36:07.750Z,29.52
2022-11-19T05:40:10.062Z,30.45
2022-11-19T05:44:11.727Z,33.30
2022-11-19T05:48:13.360Z,30.73
2022-11-19T05:52:15.006Z,33.78
2022-11-19T05:56:16.665Z,32.53
2022-11-19T06:00:18.703Z,35.63
2022-11-19T06:04:20.352Z,37.15
2022-11-19T06:08:22.043Z,33.10
2022-11-19T06:12:23.717Z,32.65
2022-11-19T06:16:25.602Z,33.53
2022-11-19T06:20:27.259Z,33.60
2022-11-19T06:24:29.818Z,33.25
2022-11-19T06:28:31.430Z,32.28
2022-11-19T06:32:33.046Z,32.90
2022-11-19T06:36:40.188Z,33.05
2022-11-19T06:40:45.680Z,33.90
2022-11-19T06:44:47.348Z,36.42
2022-11-19T06:48:48.985Z,35.50
2022-11-19T06:52:50.594Z,33.22
2022-11-19T06:56:52.243Z,38.40
2022-11-19T07:00:53.875Z,38.95
2022-11-19T07:04:55.518Z,36.67
2022-11-19T07:08:57.143Z,37.70
2022-11-19T07:12:58.797Z,36.63
2022-11-19T07:17:00.473Z,36.75
2022-11-19T07:21:02.095Z,40.55
2022-11-19T07:25:03.821Z,39.83
2022-11-19T07:29:07.547Z,41.30
2022-11-19T07:33:09.156Z,40.53
2022-11-19T07:37:10.776Z,41.10
2022-11-19T07:41:31.069Z,36.67
2022-11-19T07:45:32.683Z,39.70
2022-11-19T07:49:34.393Z,38.05
2022-11-19T07:53:36.061Z,37.42
2022-11-19T07:57:37.859Z,37.85
2022-11-19T08:01:39.529Z,35.28
2022-11-19T08:05:41.448Z,37.45
2022-11-19T08:09:43.318Z,37.22
2022-11-19T08:13:45.090Z,40.95
2022-11-19T08:18:05.371Z,33.22
2022-11-19T08:22:06.992Z,33.53
2022-11-19T08:26:08.824Z,35.30
2022-11-19T08:30:10.799Z,33.17
2022-11-19T08:34:12.773Z,32.78
2022-11-19T08:38:14.449Z,34.22
2022-11-19T08:42:34.989Z,34.10
2022-11-19T08:46:37.725Z,30.80
2022-11-19T08:50:41.918Z,32.85
2022-11-19T08:54:43.536Z,31.33
2022-11-19T08:58:45.266Z,31.10
2022-11-19T09:02:47.280Z,30.10
2022-11-19T09:06:48.986Z,26.92
2022-11-19T09:10:50.626Z,37.65
2022-11-19T09:14:52.257Z,31.55
2022-11-19T09:18:53.902Z,27.10
2022-11-19T09:22:55.561Z,28.58
2022-11-19T09:27:02.117Z,28.52
2022-11-19T09:31:08.224Z,29.10
2022-11-19T09:35:09.882Z,30.77
2022-11-19T09:39:11.547Z,28.83
2022-11-19T09:43:47.060Z,29.85
2022-11-19T09:48:03.846Z,27.52
2022-11-19T09:52:12.062Z,27.92
2022-11-19T09:56:19.670Z,34.92
2022-11-19T10:00:25.075Z,29.37
2022-11-19T10:04:31.274Z,30.48
2022-11-19T10:08:45.060Z,31.90
2022-11-19T10:13:12.176Z,34.28
2022-11-19T10:17:23.301Z,25.60
2022-11-19T10:21:38.157Z,26.05
2022-11-19T10:25:44.434Z,28.92
2022-11-19T10:29:48.263Z,28.73
2022-11-19T10:33:55.525Z,30.33
2022-11-19T10:38:04.090Z,28.20
2022-11-19T10:42:05.676Z,26.45
2022-11-19T10:46:10.716Z,26.98
2022-11-19T10:50:21.433Z,27.10
2022-11-19T10:54:27.801Z,26.02
2022-11-19T10:58:39.038Z,28.10
2022-11-19T11:02:52.380Z,30.08
2022-11-19T11:07:02.539Z,25.33
2022-11-19T11:11:04.362Z,24.83
2022-11-19T11:15:26.707Z,25.02
2022-11-19T11:19:30.224Z,24.95
2022-11-19T11:23:32.305Z,23.15
2022-11-19T11:27:35.177Z,24.37
2022-11-19T11:31:38.394Z,21.60
2022-11-19T11:35:45.297Z,24.20
2022-11-19T11:39:52.323Z,24.60
2022-11-19T11:48:08.635Z,21.23
2022-11-19T11:52:28.444Z,21.92
2022-11-19T11:56:30.073Z,22.67
2022-11-19T12:00:42.757Z,21.83
2022-11-19T12:04:44.439Z,19.83
2022-11-19T12:08:51.849Z,19.45
2022-11-19T12:13:21.043Z,20.77
2022-11-19T12:17:45.874Z,21.05
2022-11-19T12:22:06.970Z,20.73
2022-11-19T12:26:18.095Z,19.95
2022-11-19T12:30:22.443Z,19.40
2022-11-19T12:34:24.010Z,16.42
2022-11-19T12:38:53.542Z,20.05
2022-11-19T12:43:02.886Z,18.15
2022-11-19T12:47:45.464Z,15.77
2022-11-19T12:52:13.667Z,17.40
2022-11-19T12:56:59.812Z,16.48
2022-11-19T13:01:09.457Z,16.33
2022-11-19T13:05:19.504Z,19.12
2022-11-19T13:09:25.564Z,16.58
2022-11-19T13:13:30.018Z,13.25
2022-11-19T13:17:37.694Z,16.25
2022-11-19T13:21:54.383Z,14.50
2022-11-19T13:26:04.813Z,13.27
2022-11-19T13:30:18.242Z,14.25
2022-11-19T13:34:28.647Z,16.17
2022-11-19T13:38:44.701Z,14.32
2022-11-19T13:43:25.354Z,13.80
2022-11-19T13:47:35.392Z,15.52
2022-11-19T13:51:56.689Z,16.35
2022-11-19T13:55:59.343Z,15.45
2022-11-19T14:00:22.867Z,14.43
2022-11-19T14:04:51.622Z,13.07
2022-11-19T14:09:15.690Z,14.82
2022-11-19T14:13:40.449Z,14.45
2022-11-19T14:18:29.490Z,13.55
2022-11-19T14:22:53.729Z,12.55
2022-11-19T14:27:17.153Z,13.02
2022-11-19T14:31:20.704Z,16.12
2022-11-19T14:35:27.683Z,12.43
2022-11-19T14:39:40.510Z,16.25
2022-11-19T14:44:10.571Z,13.43
2022-11-19T14:48:12.236Z,12.23
2022-11-19T14:52:46.023Z,14.25
2022-11-19T14:56:59.260Z,15.90
2022-11-19T15:01:09.337Z,13.93
2022-11-19T15:05:40.920Z,15.02
2022-11-19T15:10:06.840Z,14.57
2022-11-19T15:14:39.676Z,14.93
2022-11-19T15:18:41.411Z,13.82
2022-11-19T15:23:10.349Z,13.73
2022-11-19T15:27:49.074Z,14.87
2022-11-19T15:32:35.573Z,13.93
2022-11-19T15:36:41.124Z,14.73
2022-11-19T15:40:44.867Z,13.35
2022-11-19T15:44:56.650Z,13.50
2022-11-19T15:49:12.941Z,12.52
2022-11-19T15:53:21.144Z,13.85
2022-11-19T15:57:27.218Z,13.43
2022-11-19T16:01:32.038Z,13.82
2022-11-19T16:05:33.919Z,13.27
2022-11-19T16:09:35.990Z,14.27
2022-11-19T16:13:56.387Z,14.32
2022-11-19T16:17:58.040Z,12.32
2022-11-19T16:22:03.351Z,13.25
2022-11-19T16:26:05.098Z,14.73
2022-11-19T16:30:15.565Z,12.27
2022-11-19T16:34:22.846Z,13.52
2022-11-19T16:38:28.592Z,14.18
2022-11-19T16:42:32.478Z,14.27
2022-11-19T16:46:35.061Z,14.57
2022-11-19T16:50:42.314Z,14.35
2022-11-19T16:54:48.332Z,14.65
2022-11-19T16:58:59.680Z,15.93
2022-11-19T17:03:16.132Z,13.65
2022-11-19T17:07:23.458Z,22.57
2022-11-19T17:12:13.055Z,13.48
2022-11-19T17:16:18.293Z,17.98
2022-11-19T17:20:32.066Z,15.20
2022-11-19T17:24:42.532Z,15.15
2022-11-19T17:28:47.436Z,15.18
2022-11-19T17:33:01.350Z,17.17
2022-11-19T17:37:07.504Z,19.30
2022-11-19T17:41:12.349Z,15.70
2022-11-19T17:45:14.035Z,16.65
2022-11-19T17:49:15.667Z,15.50
2022-11-19T17:53:21.331Z,16.35
2022-11-19T17:57:22.970Z,17.15
2022-11-19T18:01:24.775Z,16.50
2022-11-19T18:05:28.271Z,17.70
2022-11-19T18:09:34.614Z,16.83
2022-11-19T18:13:36.922Z,17.52
2022-11-19T18:17:38.552Z,18.95
2022-11-19T18:21:41.926Z,17.25
2022-11-19T18:25:43.593Z,18.17
2022-11-19T18:29:45.329Z,18.87
2022-11-19T18:33:50.606Z,16.73
2022-11-19T18:37:52.226Z,16.12
2022-11-19T18:41:53.859Z,16.08
2022-11-19T18:45:55.523Z,16.52
2022-11-19T18:49:57.159Z,18.95
2022-11-19T18:53:58.812Z,18.92
2022-11-19T18:58:00.689Z,18.15
2022-11-19T19:02:02.479Z,19.30
2022-11-19T19:06:06.965Z,19.17
2022-11-19T19:10:08.917Z,20.50
2022-11-19T19:14:10.561Z,18.23
2022-11-19T19:18:12.151Z,20.45
2022-11-19T19:22:13.852Z,19.60
2022-11-19T19:26:16.956Z,23.70
2022-11-19T19:30:18.685Z,19.83
2022-11-19T19:34:20.314Z,26.58
2022-11-19T19:38:22.047Z,25.25
2022-11-19T19:42:23.698Z,27.23
2022-11-19T19:46:25.422Z,21.27
2022-11-19T19:50:27.165Z,17.55
2022-11-19T19:54:28.776Z,19.52
2022-11-19T19:58:30.920Z,19.73
2022-11-19T20:02:32.627Z,20.55
2022-11-19T20:06:35.864Z,20.95
2022-11-19T20:10:37.481Z,19.23
2022-11-19T20:14:39.225Z,19.12
2022-11-19T20:18:42.261Z,22.77
2022-11-19T20:22:43.950Z,22.45
2022-11-19T20:26:45.881Z,21.37
2022-11-19T20:30:47.498Z,23.42
2022-11-19T20:34:49.209Z,20.17
2022-11-19T20:38:51.698Z,20.15
2022-11-19T20:43:12.269Z,20.25
2022-11-19T20:47:13.875Z,20.02
2022-11-19T20:51:20.518Z,21.12
2022-11-19T20:55:22.162Z,20.52
2022-11-19T20:59:25.959Z,20.52
2022-11-19T21:03:27.862Z,19.75
2022-11-19T21:07:29.504Z,21.23
2022-11-19T21:11:32.970Z,21.33
2022-11-19T21:15:35.893Z,21.33
2022-11-19T21:19:37.511Z,22.05
2022-11-19T21:23:39.847Z,19.73
2022-11-19T21:27:41.689Z,19.58
2022-11-19T21:31:48.127Z,20.75
2022-11-19T21:35:49.755Z,19.27
2022-11-19T21:39:51.411Z,21.25
2022-11-19T21:43:53.039Z,25.02
2022-11-19T21:47:54.664Z,20.12
2022-11-19T21:51:56.692Z,21.52
2022-11-19T21:55:58.833Z,20.23
2022-11-19T22:00:00.536Z,21.65
2022-11-19T22:04:02.492Z,21.02
2022-11-19T22:08:04.161Z,21.85
2022-11-19T22:12:05.931Z,19.55
2022-11-19T22:16:07.773Z,19.40
2022-11-19T22:20:09.843Z,23.58
2022-11-19T22:24:13.290Z,23.05
2022-11-19T22:28:14.890Z,21.98
2022-11-19T22:32:16.814Z,19.77
2022-11-19T22:36:20.143Z,21.10
2022-11-19T22:40:21.848Z,21.42
2022-11-19T22:44:23.531Z,22.85
2022-11-19T22:48:28.435Z,23.48
2022-11-19T22:52:30.856Z,23.10
2022-11-19T22:56:32.507Z,20.35
2022-11-19T23:00:50.880Z,20.60
2022-11-19T23:04:52.735Z,18.90
2022-11-19T23:08:55.003Z,27.65
2022-11-19T23:13:15.223Z,30.75
2022-11-19T23:17:16.859Z,23.23
2022-11-19T23:21:23.913Z,20.20
2022-11-19T23:25:25.553Z,19.45
2022-11-19T23:29:27.285Z,20.15
2022-11-19T23:33:28.902Z,20.12
2022-11-19T23:37:30.552Z,21.52
2022-11-19T23:41:33.774Z,21.90
2022-11-19T23:45:36.112Z,20.25
2022-11-19T23:49:37.777Z,22.35
2022-11-19T23:53:40.003Z,21.92
2022-11-19T23:57:41.597Z,17.12
